Terminal Aerodrome Forecast
Issued by NWS St Louis, MO

Home | Current Version | Previous Version | Text Only | Print | Product List | Glossary On
Versions: 1 2 3 4 5 6 7 8 9 10 11 12 13 14 15 16 17 18 19 20 21 22
335
FTUS43 KLSX 101724
TAFCOU
TAF
KCOU 101724Z 1018/1118 21005KT 2SM -SN OVC025
      TEMPO 1018/1020 1SM -SN OVC015
     FM102100 15007KT P6SM -SN OVC020
     FM102200 13007KT P6SM VCSH OVC030
     FM110400 08009KT P6SM BKN060=

USA.gov is the U.S. government's official web portal to all federal, state and local government web resources and services.